Time;durP1;ratioP1;P1;durP2;ratioP2;P2;SDS_P1;SDS_P2;PMS_P1;PMS_P2;Temp;Humidity;BMP_temperature;BMP_pressure;BME280_temperature;BME280_humidity;BME280_pressure;Samples;Min_cycle;Max_cycle;Signal;HPM_P1;HPM_P2
2022/05/11 00:00:57;;;;;;;5.82;4.07;;;15.40;99.90;;;;;;5096760;28;20039;-77
2022/05/11 00:03:23;;;;;;;5.43;3.97;;;15.40;99.90;;;;;;5098264;28;20484;-76
2022/05/11 00:05:49;;;;;;;5.03;3.45;;;15.30;99.90;;;;;;5098553;28;20031;-76
2022/05/11 00:08:15;;;;;;;5.35;3.85;;;15.30;99.90;;;;;;5098566;28;20020;-76
2022/05/11 00:10:41;;;;;;;5.57;4.20;;;15.30;99.90;;;;;;5098416;28;20027;-77
2022/05/11 00:13:07;;;;;;;5.85;3.88;;;15.20;99.90;;;;;;5097022;28;20391;-76
2022/05/11 00:15:33;;;;;;;7.25;4.30;;;15.20;99.90;;;;;;5091461;28;20028;-76
2022/05/11 00:18:01;;;;;;;6.18;4.05;;;15.20;99.90;;;;;;5091140;28;20024;-76
2022/05/11 00:20:27;;;;;;;7.20;4.93;;;15.10;99.90;;;;;;5098389;28;20024;-76
2022/05/11 00:22:55;;;;;;;5.63;4.65;;;15.10;99.90;;;;;;5098157;28;20399;-76
2022/05/11 00:25:25;;;;;;;6.60;3.85;;;15.10;99.90;;;;;;5098436;28;20105;-78
2022/05/11 00:27:52;;;;;;;4.47;3.80;;;15.00;99.90;;;;;;5098318;28;20020;-78
2022/05/11 00:30:19;;;;;;;4.97;4.10;;;14.90;99.90;;;;;;5098114;28;20380;-78
2022/05/11 00:32:45;;;;;;;8.98;4.50;;;14.90;99.90;;;;;;5097670;28;20035;-78
2022/05/11 00:35:11;;;;;;;7.55;4.55;;;14.90;99.90;;;;;;5098240;28;20392;-79
2022/05/11 00:37:37;;;;;;;4.75;4.20;;;14.80;99.90;;;;;;5096614;28;20020;-78
2022/05/11 00:40:04;;;;;;;4.97;4.43;;;14.80;99.90;;;;;;5097971;28;20027;-78
2022/05/11 00:42:31;;;;;;;6.35;4.32;;;14.80;99.90;;;;;;5096688;28;20043;-78
2022/05/11 00:44:56;;;;;;;5.82;4.10;;;14.70;99.90;;;;;;5097729;28;20044;-78
2022/05/11 00:47:28;;;;;;;6.35;4.07;;;14.70;99.90;;;;;;5095314;28;20073;-78
2022/05/11 00:50:19;;;;;;;8.82;4.32;;;14.70;99.90;;;;;;5086493;28;20028;-78
2022/05/11 00:52:48;;;;;;;6.45;4.40;;;14.60;99.90;;;;;;5088171;28;20081;-78
2022/05/11 00:55:24;;;;;;;4.60;4.20;;;14.60;99.90;;;;;;5097677;28;20039;-78
2022/05/11 00:58:08;;;;;;;5.20;4.10;;;14.60;99.90;;;;;;5097593;28;20103;-78
2022/05/11 01:00:36;;;;;;;6.10;4.72;;;14.60;99.90;;;;;;5097381;28;20073;-79
2022/05/11 01:03:21;;;;;;;5.28;4.32;;;14.50;99.90;;;;;;5097274;28;20028;-79
2022/05/11 01:05:47;;;;;;;4.97;3.75;;;14.50;99.90;;;;;;5097560;28;20435;-79
2022/05/11 01:08:15;;;;;;;5.20;4.32;;;14.40;99.90;;;;;;5097493;28;20369;-78
2022/05/11 01:10:42;;;;;;;4.60;4.10;;;14.40;99.90;;;;;;5096357;28;20024;-78
2022/05/11 01:13:10;;;;;;;8.23;4.35;;;14.40;99.90;;;;;;5097375;28;20020;-78
2022/05/11 01:15:37;;;;;;;9.23;4.82;;;14.30;99.90;;;;;;5088906;28;20052;-78
2022/05/11 01:18:06;;;;;;;5.93;4.60;;;14.30;99.90;;;;;;5089472;28;20016;-78
2022/05/11 01:20:35;;;;;;;5.47;4.30;;;14.30;99.90;;;;;;5097370;28;20435;-78
2022/05/11 01:23:25;;;;;;;4.82;4.32;;;14.20;99.90;;;;;;5096092;28;20039;-78
2022/05/11 01:25:51;;;;;;;4.78;4.25;;;14.20;99.90;;;;;;5097375;28;20074;-78
2022/05/11 01:28:18;;;;;;;9.52;4.35;;;14.20;99.90;;;;;;5097037;28;20028;-79
2022/05/11 01:30:52;;;;;;;6.85;4.47;;;14.10;99.90;;;;;;5099204;28;20024;-78
2022/05/11 01:33:23;;;;;;;5.18;4.65;;;14.10;99.90;;;;;;5100941;28;20027;-79
2022/05/11 01:36:25;;;;;;;5.93;4.18;;;14.00;99.90;;;;;;5101160;28;20028;-79
2022/05/11 01:38:54;;;;;;;5.53;4.22;;;14.00;99.90;;;;;;5101270;28;20080;-78
2022/05/11 01:41:29;;;;;;;7.20;5.28;;;14.00;99.90;;;;;;5101208;28;20028;-78
2022/05/11 01:43:56;;;;;;;7.45;5.35;;;14.00;99.90;;;;;;5100967;28;20424;-78
2022/05/11 01:46:22;;;;;;;6.60;4.95;;;13.90;99.90;;;;;;5101033;28;20131;-78
2022/05/11 01:48:48;;;;;;;8.95;4.97;;;13.90;99.90;;;;;;5099525;28;20024;-79
2022/05/11 01:51:17;;;;;;;5.00;4.50;;;13.90;99.90;;;;;;5100038;28;20038;-78
2022/05/11 01:53:44;;;;;;;4.95;4.40;;;13.80;99.90;;;;;;5100913;28;20024;-79
2022/05/11 01:56:12;;;;;;;6.93;4.28;;;13.80;99.90;;;;;;5101070;28;20023;-79
2022/05/11 01:58:38;;;;;;;5.05;4.40;;;13.80;99.90;;;;;;5100748;28;20384;-78
2022/05/11 02:01:05;;;;;;;9.90;5.20;;;13.80;99.90;;;;;;5100982;28;20017;-78
2022/05/11 02:03:31;;;;;;;5.35;4.70;;;13.70;99.90;;;;;;5100502;28;20022;-78
2022/05/11 02:08:43;;;;;;;6.38;4.75;;;13.70;99.90;;;;;;5100841;28;20030;-78
2022/05/11 02:11:11;;;;;;;6.45;5.28;;;13.60;99.90;;;;;;5100851;28;20036;-78
2022/05/11 02:13:38;;;;;;;5.45;4.57;;;13.60;99.90;;;;;;5095689;28;20056;-78
2022/05/11 02:16:04;;;;;;;7.88;4.82;;;13.60;99.90;;;;;;5080254;28;20028;-78
2022/05/11 02:18:30;;;;;;;5.80;5.20;;;13.50;99.90;;;;;;5097793;28;20020;-78
2022/05/11 02:20:56;;;;;;;7.50;5.22;;;13.50;99.90;;;;;;5100575;28;20024;-78
2022/05/11 02:23:23;;;;;;;11.07;5.10;;;13.50;99.90;;;;;;5100260;28;20024;-78
2022/05/11 02:25:51;;;;;;;6.95;5.03;;;13.50;99.90;;;;;;5100481;28;20518;-78
2022/05/11 02:28:18;;;;;;;7.00;4.63;;;13.40;99.90;;;;;;5100453;28;20030;-78
2022/05/11 02:30:45;;;;;;;7.95;5.05;;;13.50;99.90;;;;;;5100288;28;20061;-78
2022/05/11 02:33:12;;;;;;;6.32;5.72;;;13.40;99.90;;;;;;5099936;28;20023;-78
2022/05/11 02:35:39;;;;;;;5.97;5.32;;;13.40;99.90;;;;;;5098913;28;20024;-78
2022/05/11 02:38:09;;;;;;;5.82;5.22;;;13.50;99.90;;;;;;5099920;28;20398;-78
2022/05/11 02:40:37;;;;;;;6.20;4.72;;;13.40;99.90;;;;;;5098720;28;20024;-78
2022/05/11 02:43:03;;;;;;;5.35;4.80;;;13.40;99.90;;;;;;5100150;28;20019;-78
2022/05/11 02:45:31;;;;;;;6.90;5.20;;;13.40;99.90;;;;;;5099813;28;20044;-78
2022/05/11 02:48:02;;;;;;;8.73;4.97;;;13.40;99.90;;;;;;5099478;28;20052;-78
2022/05/11 02:50:35;;;;;;;7.20;5.57;;;13.30;99.90;;;;;;5100001;28;20115;-78
2022/05/11 02:53:07;;;;;;;7.65;5.70;;;13.30;99.90;;;;;;5099903;28;20089;-78
2022/05/11 02:55:35;;;;;;;9.15;5.65;;;13.30;99.90;;;;;;5099740;28;20106;-78
2022/05/11 02:58:02;;;;;;;7.55;5.65;;;13.30;99.90;;;;;;5099679;28;20024;-78
2022/05/11 03:00:28;;;;;;;7.57;6.05;;;13.20;99.90;;;;;;5099611;28;20073;-78
2022/05/11 03:02:54;;;;;;;12.27;7.00;;;13.20;99.90;;;;;;5099492;28;20476;-78
2022/05/11 03:05:20;;;;;;;10.32;6.32;;;13.20;99.90;;;;;;5098230;28;20507;-78
2022/05/11 03:07:46;;;;;;;8.77;6.07;;;13.20;99.90;;;;;;5099766;28;20483;-77
2022/05/11 03:10:12;;;;;;;6.80;5.97;;;13.20;99.90;;;;;;5099342;28;20056;-77
2022/05/11 03:12:38;;;;;;;8.63;6.20;;;13.20;99.90;;;;;;5098506;28;20059;-78
2022/05/11 03:15:07;;;;;;;8.18;6.10;;;13.20;99.90;;;;;;5081940;28;20032;-78
2022/05/11 03:17:33;;;;;;;7.97;5.57;;;13.10;99.90;;;;;;5087921;28;20023;-78
2022/05/11 03:19:59;;;;;;;8.60;5.20;;;13.10;99.90;;;;;;5097896;28;20909;-78
2022/05/11 03:22:25;;;;;;;7.43;6.10;;;13.10;99.90;;;;;;5099435;28;20103;-78
2022/05/11 03:24:51;;;;;;;9.52;6.57;;;13.10;99.90;;;;;;5097830;28;20388;-78
2022/05/11 03:27:17;;;;;;;7.22;5.95;;;13.00;99.90;;;;;;5099330;28;20024;-77
2022/05/11 03:29:43;;;;;;;10.55;6.43;;;13.00;99.90;;;;;;5099100;28;20028;-77
2022/05/11 03:34:53;;;;;;;10.43;7.15;;;13.10;99.90;;;;;;5099195;28;20081;-78
2022/05/11 03:37:19;;;;;;;9.45;6.25;;;13.10;99.90;;;;;;5098975;28;20083;-77
2022/05/11 03:39:46;;;;;;;7.90;6.30;;;13.20;99.90;;;;;;5098827;28;20420;-77
2022/05/11 03:42:19;;;;;;;14.35;7.38;;;13.20;99.90;;;;;;5099018;28;20395;-78
2022/05/11 03:44:45;;;;;;;7.03;6.32;;;13.30;99.90;;;;;;5098873;28;20024;-77
2022/05/11 03:47:11;;;;;;;12.07;7.57;;;13.40;99.90;;;;;;5097182;28;20381;-78
2022/05/11 03:49:37;;;;;;;8.20;7.00;;;13.50;99.90;;;;;;5099017;28;20038;-77
2022/05/11 03:52:04;;;;;;;11.35;7.13;;;13.50;99.90;;;;;;5098697;28;20020;-77
2022/05/11 03:54:30;;;;;;;7.22;6.53;;;13.50;99.90;;;;;;5098274;28;20080;-77
2022/05/11 03:56:55;;;;;;;9.50;6.90;;;13.50;99.90;;;;;;5097187;28;20028;-77
2022/05/11 03:59:21;;;;;;;7.97;6.97;;;13.50;99.90;;;;;;5098620;28;20024;-78
2022/05/11 04:01:47;;;;;;;10.82;7.18;;;13.50;99.90;;;;;;5096849;28;20023;-77
2022/05/11 04:04:13;;;;;;;9.45;7.13;;;13.40;99.90;;;;;;5098748;28;20388;-77
2022/05/11 04:06:39;;;;;;;9.93;7.22;;;13.40;99.90;;;;;;5098385;28;20442;-77
2022/05/11 04:09:05;;;;;;;13.10;8.10;;;13.40;99.90;;;;;;5098519;28;20111;-77
2022/05/11 04:11:31;;;;;;;9.35;7.65;;;13.30;99.90;;;;;;5098246;28;20016;-78
2022/05/11 04:13:57;;;;;;;14.35;8.45;;;13.30;99.90;;;;;;5098438;28;20464;-77
2022/05/11 04:16:24;;;;;;;13.02;7.85;;;13.30;99.90;;;;;;5084453;28;20047;-78
2022/05/11 04:18:50;;;;;;;8.68;6.95;;;13.20;99.90;;;;;;5098252;28;20088;-77
2022/05/11 04:21:16;;;;;;;12.02;7.57;;;13.20;99.90;;;;;;5098099;28;20496;-77
2022/05/11 04:23:42;;;;;;;11.30;7.60;;;13.20;99.90;;;;;;5098102;28;20016;-78
2022/05/11 04:26:09;;;;;;;9.52;7.43;;;13.10;99.90;;;;;;5097947;28;20051;-78
2022/05/11 04:28:35;;;;;;;10.52;6.97;;;13.00;99.90;;;;;;5096746;28;20418;-77
2022/05/11 04:31:07;;;;;;;11.52;7.28;;;13.00;99.90;;;;;;5096606;28;20041;-78
2022/05/11 04:33:33;;;;;;;9.80;7.38;;;12.90;99.90;;;;;;5096357;28;20027;-78
2022/05/11 04:36:00;;;;;;;7.35;6.65;;;12.80;99.90;;;;;;5097725;28;20031;-78
2022/05/11 04:38:26;;;;;;;8.32;7.43;;;12.80;99.90;;;;;;5096466;28;20032;-78
2022/05/11 04:40:52;;;;;;;10.15;8.55;;;12.70;99.90;;;;;;5097555;28;20380;-78
2022/05/11 04:43:18;;;;;;;8.65;7.47;;;12.70;99.90;;;;;;5097977;28;20063;-78
2022/05/11 04:45:45;;;;;;;9.85;7.25;;;12.70;99.90;;;;;;5097592;28;20082;-78
2022/05/11 04:48:13;;;;;;;10.50;7.63;;;12.70;99.90;;;;;;5097240;28;20410;-78
2022/05/11 04:50:42;;;;;;;8.75;7.45;;;12.70;99.90;;;;;;5097577;28;20471;-78
2022/05/11 04:53:09;;;;;;;11.40;8.13;;;12.70;99.90;;;;;;5096420;28;20024;-78
2022/05/11 04:55:35;;;;;;;12.45;8.25;;;12.70;99.90;;;;;;5097609;28;20020;-78
2022/05/11 04:58:02;;;;;;;12.95;8.55;;;12.70;99.90;;;;;;5096179;28;20055;-78
2022/05/11 05:00:27;;;;;;;9.10;8.13;;;12.70;99.90;;;;;;5096039;28;20057;-78
2022/05/11 05:02:53;;;;;;;11.60;8.73;;;12.70;99.90;;;;;;5097325;28;20136;-77
2022/05/11 05:05:20;;;;;;;10.52;8.18;;;12.80;99.90;;;;;;5096583;28;20032;-77
2022/05/11 05:07:46;;;;;;;10.23;8.18;;;12.90;99.90;;;;;;5097452;28;20113;-76
2022/05/11 05:10:14;;;;;;;10.23;8.63;;;13.00;99.90;;;;;;5097370;28;20024;-76
2022/05/11 05:12:41;;;;;;;15.05;9.02;;;13.10;99.90;;;;;;5096174;28;20032;-78
2022/05/11 05:15:08;;;;;;;10.25;8.77;;;13.20;99.90;;;;;;5084570;28;20024;-76
2022/05/11 05:17:34;;;;;;;9.93;8.75;;;13.30;99.90;;;;;;5086799;28;20085;-77
2022/05/11 05:20:00;;;;;;;16.73;8.82;;;13.50;99.90;;;;;;5097190;28;20020;-77
2022/05/11 05:22:26;;;;;;;13.43;9.00;;;13.60;99.90;;;;;;5097312;28;20476;-77
2022/05/11 05:24:52;;;;;;;9.70;8.63;;;13.70;99.90;;;;;;5097180;28;20082;-77
2022/05/11 05:27:19;;;;;;;12.63;8.82;;;13.90;99.90;;;;;;5097414;28;20027;-77
2022/05/11 05:32:38;;;;;;;12.20;8.90;;;14.10;99.90;;;;;;5097142;28;20112;-77
2022/05/11 05:35:05;;;;;;;11.68;8.77;;;14.30;99.90;;;;;;5089509;28;20039;-77
2022/05/11 05:37:31;;;;;;;13.07;8.13;;;14.40;99.90;;;;;;5091021;28;20035;-78
2022/05/11 05:39:57;;;;;;;12.38;7.90;;;14.50;99.90;;;;;;5097053;28;20017;-78
2022/05/11 05:42:26;;;;;;;11.80;9.05;;;14.70;99.90;;;;;;5097035;28;20503;-77
2022/05/11 05:44:52;;;;;;;18.67;10.82;;;14.80;99.90;;;;;;5096915;28;20438;-77
2022/05/11 05:47:18;;;;;;;16.20;9.35;;;14.90;99.90;;;;;;5096691;28;20468;-76
2022/05/11 05:49:45;;;;;;;17.88;10.02;;;15.10;99.90;;;;;;5095783;28;20069;-78
2022/05/11 05:52:17;;;;;;;16.02;9.55;;;15.20;99.90;;;;;;5096888;28;20035;-77
2022/05/11 05:54:45;;;;;;;12.32;8.35;;;15.30;99.90;;;;;;5097069;28;20069;-77
2022/05/11 05:57:12;;;;;;;17.60;9.05;;;15.50;99.90;;;;;;5095546;28;20052;-78
2022/05/11 05:59:38;;;;;;;13.40;8.95;;;15.50;99.90;;;;;;5096824;28;20019;-78
2022/05/11 06:02:08;;;;;;;15.52;8.30;;;15.60;99.90;;;;;;5096659;28;20023;-77
2022/05/11 06:04:34;;;;;;;15.73;8.07;;;15.80;99.90;;;;;;5096930;28;20433;-78
2022/05/11 06:07:00;;;;;;;12.98;8.00;;;15.90;99.90;;;;;;5096803;28;20119;-78
2022/05/11 06:09:25;;;;;;;15.45;8.13;;;16.00;99.90;;;;;;5096750;28;20027;-78
2022/05/11 06:11:51;;;;;;;10.35;7.80;;;16.10;99.90;;;;;;5096767;28;20039;-78
2022/05/11 06:14:17;;;;;;;13.93;8.30;;;16.30;99.90;;;;;;5095690;28;20020;-79
2022/05/11 06:16:43;;;;;;;15.85;7.78;;;16.40;99.90;;;;;;5084434;28;20107;-78
2022/05/11 06:19:09;;;;;;;13.93;7.55;;;16.50;99.90;;;;;;5089236;28;20496;-78
2022/05/11 06:21:35;;;;;;;11.00;6.70;;;16.70;99.90;;;;;;5100465;28;20096;-78
2022/05/11 06:24:01;;;;;;;15.75;7.85;;;16.80;99.90;;;;;;5100458;28;20028;-78
2022/05/11 06:26:27;;;;;;;22.70;7.30;;;16.80;99.90;;;;;;5100394;28;20021;-78
2022/05/11 06:28:54;;;;;;;13.07;7.07;;;16.90;99.90;;;;;;5088737;28;20036;-79
2022/05/11 06:31:21;;;;;;;10.75;6.35;;;17.00;99.90;;;;;;5100304;28;20024;-81
2022/05/11 06:33:50;;;;;;;10.35;7.03;;;17.10;99.90;;;;;;5096428;28;20020;-81
2022/05/11 06:36:16;;;;;;;11.55;6.25;;;17.20;99.90;;;;;;5082585;28;20055;-80
2022/05/11 06:38:42;;;;;;;8.65;5.43;;;17.30;99.90;;;;;;5098949;28;20024;-79
2022/05/11 06:41:15;;;;;;;8.75;5.80;;;17.40;99.90;;;;;;5100100;28;20020;-80
2022/05/11 06:43:41;;;;;;;7.57;6.07;;;17.50;99.90;;;;;;5100173;28;20024;-80
2022/05/11 06:46:08;;;;;;;9.82;5.40;;;17.60;99.90;;;;;;5099935;28;20101;-81
2022/05/11 06:48:34;;;;;;;8.57;5.68;;;17.70;99.90;;;;;;5091927;28;20052;-80
2022/05/11 06:51:00;;;;;;;7.97;5.00;;;17.80;99.90;;;;;;5097820;28;20028;-80
2022/05/11 06:53:26;;;;;;;10.55;6.30;;;18.00;99.90;;;;;;5089544;28;20040;-81
2022/05/11 07:01:21;;;;;;;12.98;4.97;;;18.30;99.90;;;;;;5077744;28;20047;-80
2022/05/11 07:03:46;;;;;;;12.98;5.05;;;18.40;99.90;;;;;;5079789;28;20102;-79
2022/05/11 07:06:12;;;;;;;12.43;5.03;;;18.50;99.90;;;;;;5079451;28;20025;-79
2022/05/11 07:08:41;;;;;;;11.63;4.45;;;18.60;99.90;;;;;;5082544;28;20024;-78
2022/05/11 07:13:53;;;;;;;7.22;4.07;;;18.80;99.90;;;;;;5083572;28;20416;-79
2022/05/11 07:16:19;;;;;;;6.18;4.18;;;18.80;99.90;;;;;;5078424;28;20024;-78
2022/05/11 07:18:45;;;;;;;8.02;4.05;;;19.00;99.90;;;;;;5079268;28;20017;-79
2022/05/11 07:21:11;;;;;;;8.00;4.07;;;19.00;99.90;;;;;;5080197;28;20016;-78
2022/05/11 07:23:37;;;;;;;8.35;4.22;;;19.20;99.90;;;;;;5081784;28;20058;-77
2022/05/11 07:26:03;;;;;;;9.35;3.95;;;19.20;99.90;;;;;;5079190;28;20472;-79
2022/05/11 07:28:29;;;;;;;6.68;3.55;;;19.30;99.90;;;;;;5084781;28;20024;-79
2022/05/11 07:30:55;;;;;;;5.93;3.97;;;19.40;99.90;;;;;;5097812;28;20028;-78
2022/05/11 07:33:21;;;;;;;7.57;3.80;;;19.40;99.90;;;;;;5097430;28;20020;-78
2022/05/11 07:35:47;;;;;;;10.27;3.20;;;19.50;99.90;;;;;;5097629;28;20496;-78
2022/05/11 07:38:17;;;;;;;5.65;3.80;;;19.70;99.90;;;;;;5098748;28;20051;-76
2022/05/11 07:40:44;;;;;;;9.57;4.05;;;19.80;99.90;;;;;;5097623;28;20107;-78
2022/05/11 07:43:12;;;;;;;7.07;3.15;;;19.90;99.90;;;;;;5097625;28;20020;-78
2022/05/11 07:45:39;;;;;;;6.63;3.90;;;20.00;99.90;;;;;;5097290;28;20048;-77
2022/05/11 07:48:06;;;;;;;12.57;4.13;;;20.10;99.90;;;;;;5098310;28;20081;-77
2022/05/11 07:50:32;;;;;;;8.48;3.78;;;20.10;99.90;;;;;;5097389;28;20411;-78
2022/05/11 07:52:58;;;;;;;7.47;3.45;;;20.20;99.90;;;;;;5098708;28;20020;-78
2022/05/11 07:55:25;;;;;;;9.38;3.60;;;20.30;99.90;;;;;;5097395;28;20119;-80
2022/05/11 08:00:37;;;;;;;8.85;3.47;;;20.50;99.90;;;;;;5098324;28;20134;-80
2022/05/11 08:03:04;;;;;;;8.88;3.22;;;20.60;99.90;;;;;;5098146;28;20357;-78
2022/05/11 08:05:32;;;;;;;5.57;3.33;;;20.70;99.90;;;;;;5097156;28;20031;-78
2022/05/11 08:08:02;;;;;;;7.93;3.47;;;20.80;99.90;;;;;;5097220;28;20028;-79
2022/05/11 08:10:33;;;;;;;8.43;3.58;;;20.90;99.90;;;;;;5098362;28;20052;-78
2022/05/11 08:13:00;;;;;;;;;;;21.00;99.90;;;;;;5098760;28;20488;-78
2022/05/11 08:15:31;;;;;;;5.97;2.90;;;21.10;99.90;;;;;;5092486;28;20015;-78
2022/05/11 08:17:59;;;;;;;8.90;3.17;;;21.30;99.90;;;;;;5091086;28;20442;-77
2022/05/11 08:20:29;;;;;;;7.32;3.15;;;21.30;99.90;;;;;;5098374;28;20559;-78
2022/05/11 08:22:57;;;;;;;6.15;3.13;;;21.40;99.90;;;;;;5098096;28;20020;-78
2022/05/11 08:25:26;;;;;;;15.23;3.30;;;21.50;99.90;;;;;;5098232;28;20496;-77
2022/05/11 08:27:54;;;;;;;6.57;3.05;;;21.50;99.90;;;;;;5098077;28;20020;-77
2022/05/11 08:33:26;;;;;;;4.50;2.75;;;21.70;99.90;;;;;;5097976;28;20039;-77
2022/05/11 08:36:04;;;;;;;8.30;3.67;;;21.80;99.90;;;;;;5096537;28;20458;-77
2022/05/11 08:38:39;;;;;;;7.70;3.00;;;21.80;99.90;;;;;;5096765;28;20028;-78
2022/05/11 08:41:11;;;;;;;5.60;2.70;;;21.90;99.90;;;;;;5096519;28;20395;-77
2022/05/11 08:43:38;;;;;;;8.50;3.55;;;21.90;99.90;;;;;;5097984;28;20042;-77
2022/05/11 08:46:20;;;;;;;8.73;3.08;;;22.00;99.90;;;;;;5095944;28;20040;-77
2022/05/11 08:48:58;;;;;;;14.85;4.25;;;22.20;99.90;;;;;;5096331;28;20033;-79
2022/05/11 08:51:50;;;;;;;12.80;4.40;;;22.20;99.90;;;;;;5097896;28;20094;-77
2022/05/11 08:54:27;;;;;;;7.80;3.53;;;22.40;99.90;;;;;;5097476;28;20031;-78
2022/05/11 08:56:55;;;;;;;19.42;3.75;;;22.40;99.90;;;;;;5096535;28;20056;-78
2022/05/11 08:59:24;;;;;;;4.88;2.67;;;22.40;99.90;;;;;;5097510;28;20050;-78
2022/05/11 09:01:59;;;;;;;6.93;3.03;;;22.50;99.90;;;;;;5096002;28;20031;-78
2022/05/11 09:04:51;;;;;;;5.43;2.72;;;22.50;99.90;;;;;;5097823;28;20065;-79
2022/05/11 09:07:18;;;;;;;9.20;3.13;;;22.50;99.90;;;;;;5097428;28;20024;-78
2022/05/11 09:09:44;;;;;;;11.68;3.45;;;22.70;99.90;;;;;;5096151;28;20392;-79
2022/05/11 09:12:11;;;;;;;6.32;3.33;;;22.80;99.90;;;;;;5096323;28;20092;-77
2022/05/11 09:14:44;;;;;;;5.00;3.13;;;22.90;99.90;;;;;;5096786;28;20025;-78
2022/05/11 09:17:37;;;;;;;10.50;3.65;;;22.90;99.90;;;;;;5069862;28;20115;-77
2022/05/11 09:20:11;;;;;;;8.10;3.70;;;23.00;99.90;;;;;;5055435;28;20025;-78
2022/05/11 09:22:41;;;;;;;7.55;2.85;;;23.10;99.90;;;;;;5079624;28;20054;-78
2022/05/11 09:25:24;;;;;;;6.00;2.67;;;23.20;99.90;;;;;;5085994;28;20028;-79
2022/05/11 09:27:51;;;;;;;5.22;2.90;;;23.20;99.90;;;;;;5076590;28;20266;-78
2022/05/11 09:30:23;;;;;;;12.60;3.10;;;23.20;99.90;;;;;;5074139;28;20397;-77
2022/05/11 09:32:53;;;;;;;7.80;3.00;;;23.40;99.90;;;;;;5078076;28;20560;-78
2022/05/11 09:35:37;;;;;;;7.78;2.67;;;23.50;99.90;;;;;;5078526;28;20027;-77
2022/05/11 09:38:19;;;;;;;8.70;2.80;;;23.50;99.90;;;;;;5075430;28;20109;-77
2022/05/11 09:41:10;;;;;;;6.13;3.42;;;23.60;99.90;;;;;;5077959;28;20008;-77
2022/05/11 09:43:43;;;;;;;7.70;2.92;;;23.80;99.90;;;;;;5075787;28;20027;-79
2022/05/11 09:46:19;;;;;;;8.40;2.90;;;23.80;99.90;;;;;;5086314;28;20421;-80
2022/05/11 09:49:17;;;;;;;4.70;2.70;;;23.80;99.60;;;;;;5075420;28;20496;-77
2022/05/11 09:51:46;;;;;;;8.02;2.80;;;23.80;99.90;;;;;;5076089;28;20483;-81
2022/05/11 09:54:15;;;;;;;6.20;2.80;;;23.90;99.20;;;;;;5078723;28;20111;-84
2022/05/11 09:57:20;;;;;;;10.98;2.88;;;23.80;98.90;;;;;;5075810;28;20021;-81
2022/05/11 09:59:51;;;;;;;5.78;3.05;;;23.90;99.40;;;;;;5083883;28;20044;-84
2022/05/11 10:02:37;;;;;;;9.88;3.10;;;24.00;98.20;;;;;;5085987;28;20024;-77
2022/05/11 10:05:08;;;;;;;5.25;2.72;;;24.10;99.00;;;;;;5093360;28;20041;-78
2022/05/11 10:07:45;;;;;;;4.93;2.90;;;24.20;99.50;;;;;;5084456;28;20039;-77
2022/05/11 10:10:26;;;;;;;6.13;2.70;;;24.30;98.70;;;;;;5086382;28;20024;-78
2022/05/11 10:13:00;;;;;;;9.10;3.20;;;24.20;98.60;;;;;;5091262;28;20031;-78
2022/05/11 10:24:16;;;;;;;8.68;2.88;;;24.60;98.90;;;;;;5100334;28;20042;-76
2022/05/11 10:26:55;;;;;;;8.80;3.42;;;24.60;98.80;;;;;;5099944;28;20472;-77
2022/05/11 10:29:36;;;;;;;6.93;2.43;;;24.70;97.80;;;;;;5097119;28;20043;-77
2022/05/11 10:32:17;;;;;;;15.05;2.90;;;24.70;95.60;;;;;;5098800;28;20028;-78
2022/05/11 10:34:55;;;;;;;4.75;2.60;;;24.80;97.20;;;;;;5100324;28;20020;-78
2022/05/11 10:37:58;;;;;;;7.43;2.72;;;24.80;97.90;;;;;;5100239;28;20050;-80
2022/05/11 10:40:49;;;;;;;17.55;3.10;;;24.90;98.40;;;;;;5019963;28;20060;-80
2022/05/11 10:43:32;;;;;;;6.53;2.78;;;24.90;97.20;;;;;;5087375;28;20031;-80
2022/05/11 10:46:05;;;;;;;6.85;2.72;;;25.00;97.50;;;;;;5092628;28;20040;-78
2022/05/11 10:48:41;;;;;;;9.43;2.45;;;25.20;96.40;;;;;;5100585;28;20551;-77
2022/05/11 10:51:21;;;;;;;10.07;2.17;;;25.30;96.90;;;;;;5096062;28;20026;-77
2022/05/11 10:54:24;;;;;;;6.10;3.03;;;25.40;95.20;;;;;;5093455;28;20059;-77
2022/05/11 10:57:00;;;;;;;6.88;2.78;;;25.40;96.40;;;;;;5096638;28;20357;-78
2022/05/11 10:59:48;;;;;;;6.45;2.60;;;25.50;95.00;;;;;;5089416;28;20498;-78
2022/05/11 11:02:32;;;;;;;6.82;2.75;;;25.40;95.70;;;;;;5093846;28;20081;-76
2022/05/11 11:05:06;;;;;;;6.40;2.53;;;25.60;96.50;;;;;;5097450;28;20027;-77
2022/05/11 11:07:53;;;;;;;9.02;3.17;;;25.60;95.80;;;;;;5098655;28;20020;-77
2022/05/11 11:10:25;;;;;;;9.27;3.08;;;25.70;95.30;;;;;;5097978;28;20028;-76
2022/05/11 11:13:25;;;;;;;6.63;2.85;;;25.80;95.30;;;;;;5096670;28;20028;-77
2022/05/11 11:15:52;;;;;;;6.90;2.95;;;25.80;96.00;;;;;;5093472;28;20024;-78
2022/05/11 11:18:29;;;;;;;8.10;3.13;;;25.80;94.90;;;;;;5094960;28;20066;-76
2022/05/11 11:21:01;;;;;;;5.65;2.67;;;25.90;96.30;;;;;;5098081;28;20031;-77
2022/05/11 11:23:33;;;;;;;4.50;2.95;;;26.00;94.40;;;;;;5099159;28;20368;-77
2022/05/11 11:26:07;;;;;;;5.72;2.58;;;26.00;93.70;;;;;;5098315;28;20020;-77
2022/05/11 11:28:55;;;;;;;7.03;2.75;;;25.90;94.00;;;;;;5097932;28;20028;-76
2022/05/11 11:31:28;;;;;;;4.72;2.72;;;25.90;94.80;;;;;;5098860;28;20024;-77
2022/05/11 11:33:54;;;;;;;6.15;2.45;;;26.00;95.20;;;;;;5088557;28;20454;-76
2022/05/11 11:36:31;;;;;;;6.65;2.40;;;26.20;94.70;;;;;;5080522;28;20028;-76
2022/05/11 11:39:00;;;;;;;10.75;2.90;;;26.20;95.40;;;;;;5078682;28;20032;-77
2022/05/11 11:41:42;;;;;;;4.50;2.28;;;26.10;94.00;;;;;;5079604;28;20078;-77
2022/05/11 11:44:32;;;;;;;7.95;2.30;;;26.10;92.80;;;;;;5080220;28;20025;-77
2022/05/11 11:46:59;;;;;;;6.90;3.20;;;26.00;93.70;;;;;;5077258;28;20060;-76
2022/05/11 11:49:27;;;;;;;10.70;3.88;;;26.20;94.00;;;;;;5096372;28;20408;-77
2022/05/11 11:52:00;;;;;;;8.52;2.85;;;26.30;93.70;;;;;;5095379;28;20065;-77
2022/05/11 11:54:38;;;;;;;8.50;2.78;;;26.40;93.40;;;;;;5080159;28;20028;-76
2022/05/11 11:57:08;;;;;;;6.32;2.30;;;26.40;92.90;;;;;;5107596;28;20488;-78
2022/05/11 11:59:40;;;;;;;8.25;2.85;;;26.50;93.90;;;;;;5098171;28;20028;-76
2022/05/11 12:02:18;;;;;;;10.60;2.90;;;26.50;93.10;;;;;;5097951;28;20036;-77
2022/05/11 12:05:00;;;;;;;7.47;2.42;;;26.40;92.90;;;;;;5097330;28;20392;-76
2022/05/11 12:16:10;;;;;;;7.75;2.50;;;26.70;93.80;;;;;;5086768;28;20085;-76
2022/05/11 12:18:39;;;;;;;5.85;2.35;;;26.80;94.40;;;;;;5096494;28;20031;-77
2022/05/11 12:21:30;;;;;;;7.72;2.97;;;26.90;93.20;;;;;;5096953;28;20031;-77
2022/05/11 12:23:58;;;;;;;8.15;2.63;;;26.90;93.80;;;;;;5097951;28;20040;-76
2022/05/11 12:26:33;;;;;;;7.45;2.42;;;27.00;93.60;;;;;;5088841;28;20055;-76
2022/05/11 12:32:07;;;;;;;8.18;2.70;;;27.40;93.40;;;;;;5096960;28;20061;-76
2022/05/11 12:34:44;;;;;;;6.53;2.28;;;27.30;92.50;;;;;;5095503;28;20089;-77
2022/05/11 12:37:25;;;;;;;6.60;2.22;;;27.30;92.70;;;;;;5095437;28;20035;-75
2022/05/11 12:39:56;;;;;;;9.95;2.78;;;27.40;92.60;;;;;;5097008;28;20149;-77
2022/05/11 12:42:33;;;;;;;5.43;2.30;;;27.40;91.40;;;;;;5097899;28;20455;-77
2022/05/11 12:44:59;;;;;;;8.35;2.22;;;27.50;91.50;;;;;;5096236;28;20096;-77
2022/05/11 12:47:27;;;;;;;4.47;2.13;;;27.50;92.30;;;;;;5097762;28;20071;-78
2022/05/11 12:49:53;;;;;;;7.13;2.53;;;27.60;91.40;;;;;;5098042;28;20016;-77
2022/05/11 12:52:20;;;;;;;5.07;2.55;;;27.70;92.60;;;;;;5097539;28;20024;-77
2022/05/11 12:55:02;;;;;;;8.65;3.10;;;27.80;91.60;;;;;;5097580;28;20444;-78
2022/05/11 12:57:40;;;;;;;6.28;4.30;;;27.70;91.30;;;;;;5096299;28;20016;-77
2022/05/11 13:00:18;;;;;;;10.10;4.38;;;27.80;90.90;;;;;;5097367;28;20031;-77
2022/05/11 13:02:45;;;;;;;9.25;3.83;;;27.90;92.00;;;;;;5097392;28;20400;-77
2022/05/11 13:05:18;;;;;;;14.57;4.35;;;27.90;91.00;;;;;;5096298;28;20035;-76
2022/05/11 13:07:47;;;;;;;6.82;2.85;;;27.90;90.10;;;;;;5089917;28;20110;-77
2022/05/11 13:10:33;;;;;;;7.97;3.25;;;28.00;88.20;;;;;;5096536;28;20232;-76
2022/05/11 13:13:00;;;;;;;4.68;2.72;;;28.00;89.20;;;;;;5095995;28;20078;-77
2022/05/11 13:15:39;;;;;;;4.57;2.42;;;28.00;90.30;;;;;;5091324;28;20100;-78
2022/05/11 13:18:08;;;;;;;7.07;2.63;;;28.10;90.80;;;;;;5090999;28;20035;-77
2022/05/11 13:20:40;;;;;;;7.70;2.90;;;28.00;90.10;;;;;;5097439;28;20029;-77
2022/05/11 13:23:26;;;;;;;7.35;2.95;;;28.10;90.40;;;;;;5097235;28;20024;-77
2022/05/11 13:25:54;;;;;;;5.68;2.17;;;28.30;92.20;;;;;;5096608;28;20024;-77
2022/05/11 13:28:22;;;;;;;5.63;2.63;;;28.30;86.40;;;;;;5097160;28;20496;-77
2022/05/11 13:30:49;;;;;;;6.13;2.20;;;28.40;88.90;;;;;;5096956;28;20032;-77
2022/05/11 13:33:32;;;;;;;4.10;1.98;;;28.40;89.50;;;;;;5097039;28;20021;-77
2022/05/11 13:36:10;;;;;;;8.75;2.90;;;28.40;86.70;;;;;;5095754;28;20526;-76
2022/05/11 13:38:38;;;;;;;11.13;2.75;;;28.60;90.50;;;;;;5074481;28;20488;-77
2022/05/11 13:41:07;;;;;;;6.65;2.28;;;28.70;83.80;;;;;;5095934;28;20561;-77
2022/05/11 13:43:44;;;;;;;8.20;2.57;;;28.80;87.50;;;;;;5096999;28;20048;-77
2022/05/11 13:49:31;;;;;;;3.22;1.92;;;28.90;84.80;;;;;;5077371;28;20035;-77